Time;durP1;ratioP1;P1;durP2;ratioP2;P2;SDS_P1;SDS_P2;PMS_P1;PMS_P2;Temp;Humidity;BMP_temperature;BMP_pressure;BME280_temperature;BME280_humidity;BME280_pressure;Samples;Min_cycle;Max_cycle;Signal;HPM_P1;HPM_P2
2020/12/13 00:00:25;;;;;;;88.82;36.78;;;;;;;0.18;100.00;98192.09;2088923;28;20231;-78
2020/12/13 00:01:27;;;;;;;70.97;33.80;;;;;;;0.17;100.00;98197.56;2088945;28;20230;-79
2020/12/13 00:02:28;;;;;;;80.70;35.90;;;;;;;0.21;100.00;98196.03;2088903;28;20297;-78
2020/12/13 00:03:29;;;;;;;86.10;34.90;;;;;;;0.18;100.00;98186.06;2089684;28;20246;-78
2020/12/13 00:04:29;;;;;;;83.68;36.35;;;;;;;0.18;100.00;98194.72;2088845;28;20571;-78
2020/12/13 00:05:31;;;;;;;76.17;34.70;;;;;;;0.11;100.00;98188.09;2075419;28;20302;-79
2020/12/13 00:06:32;;;;;;;82.18;37.33;;;;;;;0.10;100.00;98181.25;2072407;28;20219;-78
2020/12/13 00:07:33;;;;;;;82.70;36.50;;;;;;;0.21;100.00;98193.41;2079969;28;20302;-78
2020/12/13 00:08:34;;;;;;;78.85;36.50;;;;;;;0.17;100.00;98193.09;2080971;28;20302;-78
2020/12/13 00:09:35;;;;;;;74.23;35.50;;;;;;;0.19;100.00;98193.66;2080840;28;20219;-78
2020/12/13 00:10:36;;;;;;;74.10;35.97;;;;;;;0.15;100.00;98199.63;2081028;28;20223;-78
2020/12/13 00:11:39;;;;;;;75.67;36.23;;;;;;;0.09;100.00;98190.13;2088656;28;20254;-78
2020/12/13 00:12:39;;;;;;;80.40;36.15;;;;;;;0.18;100.00;98196.53;2088982;28;20298;-78
2020/12/13 00:13:41;;;;;;;84.07;37.13;;;;;;;0.18;100.00;98199.94;2088793;28;20689;-78
2020/12/13 00:14:41;;;;;;;87.30;37.15;;;;;;;0.18;100.00;98201.78;2088780;28;20235;-78
2020/12/13 00:15:43;;;;;;;92.20;38.70;;;;;;;0.18;100.00;98207.03;2077719;28;20674;-79
2020/12/13 00:16:43;;;;;;;83.53;37.35;;;;;;;0.15;100.00;98194.41;2082275;28;20677;-80
2020/12/13 00:17:45;;;;;;;84.47;37.60;;;;;;;0.29;100.00;98208.69;2072288;28;20612;-80
2020/12/13 00:18:46;;;;;;;77.28;36.45;;;;;;;0.23;100.00;98199.19;2080620;28;20219;-79
2020/12/13 00:19:47;;;;;;;77.60;35.70;;;;;;;0.28;100.00;98207.09;2080769;28;20739;-79
2020/12/13 00:20:48;;;;;;;77.13;35.70;;;;;;;0.25;100.00;98204.97;2080704;28;20752;-80
2020/12/13 00:21:50;;;;;;;85.60;37.10;;;;;;;0.25;100.00;98207.59;2080553;28;20306;-80
2020/12/13 00:22:51;;;;;;;82.88;37.78;;;;;;;0.34;100.00;98206.09;2080584;28;20218;-80
2020/12/13 00:23:53;;;;;;;82.13;36.73;;;;;;;0.35;100.00;98210.31;2082273;28;20247;-80
2020/12/13 00:24:53;;;;;;;86.97;36.88;;;;;;;0.37;100.00;98210.84;2074350;28;20220;-80
2020/12/13 00:25:54;;;;;;;81.37;35.50;;;;;;;0.36;100.00;98218.97;2082538;28;20227;-80
2020/12/13 00:26:56;;;;;;;83.40;35.95;;;;;;;0.25;100.00;98204.97;2081185;28;20230;-80
2020/12/13 00:27:57;;;;;;;81.97;36.90;;;;;;;0.22;100.00;98202.84;2080484;28;20694;-80
2020/12/13 00:28:58;;;;;;;84.15;38.28;;;;;;;0.20;100.00;98212.81;2080590;28;20242;-80
2020/12/13 00:29:59;;;;;;;76.07;34.97;;;;;;;0.24;100.00;98221.75;2081328;28;20735;-80
2020/12/13 00:31:00;;;;;;;78.47;36.25;;;;;;;0.21;100.00;98211.75;2081215;28;20238;-80
2020/12/13 00:32:01;;;;;;;85.90;36.90;;;;;;;0.30;100.00;98223.38;2080754;28;20247;-80
2020/12/13 00:33:02;;;;;;;75.70;35.08;;;;;;;0.29;100.00;98224.44;2080194;28;20239;-80
2020/12/13 00:34:03;;;;;;;78.33;37.20;;;;;;;0.27;100.00;98222.06;2080667;28;20230;-80
2020/12/13 00:35:04;;;;;;;75.75;36.03;;;;;;;0.24;100.00;98225.16;2080318;28;20306;-80
2020/12/13 00:36:05;;;;;;;73.30;36.57;;;;;;;0.20;100.00;98218.06;2080053;28;20250;-80
2020/12/13 00:37:06;;;;;;;77.45;35.78;;;;;;;0.21;100.00;98223.06;2080274;28;20227;-80
2020/12/13 00:38:08;;;;;;;80.57;37.20;;;;;;;0.23;100.00;98230.66;2088260;28;20231;-80
2020/12/13 00:39:08;;;;;;;76.38;34.85;;;;;;;0.19;100.00;98225.13;2082829;28;20473;-80
2020/12/13 00:40:10;;;;;;;75.27;36.03;;;;;;;0.25;100.00;98228.56;2081008;28;20310;-80
2020/12/13 00:41:10;;;;;;;77.53;37.13;;;;;;;0.26;100.00;98224.91;2080959;28;20296;-80
2020/12/13 00:42:13;;;;;;;81.50;36.53;;;;;;;0.27;100.00;98229.94;2080434;28;20247;-80
2020/12/13 00:43:14;;;;;;;79.90;36.05;;;;;;;0.26;100.00;98233.59;2080462;28;20227;-80
2020/12/13 00:44:15;;;;;;;74.57;36.43;;;;;;;0.22;100.00;98218.59;2081101;28;20231;-80
2020/12/13 00:45:15;;;;;;;77.32;36.25;;;;;;;0.22;100.00;98216.75;2080420;28;20219;-80
2020/12/13 00:46:17;;;;;;;71.17;35.17;;;;;;;0.27;100.00;98235.19;2072604;28;20275;-80
2020/12/13 00:47:18;;;;;;;68.43;34.15;;;;;;;0.27;100.00;98231.75;2071763;28;20318;-79
2020/12/13 00:48:20;;;;;;;68.55;34.70;;;;;;;0.28;100.00;98233.34;2080315;28;20219;-80
2020/12/13 00:49:20;;;;;;;70.03;34.00;;;;;;;0.26;100.00;98238.84;2081144;28;20692;-80
2020/12/13 00:50:22;;;;;;;81.83;36.93;;;;;;;0.33;100.00;98238.63;2080377;28;20631;-80
2020/12/13 00:51:24;;;;;;;105.35;42.42;;;;;;;0.32;100.00;98233.63;2088145;28;20245;-80
2020/12/13 00:52:25;;;;;;;107.28;44.30;;;;;;;0.31;100.00;98243.31;2080292;28;20700;-80
2020/12/13 00:53:26;;;;;;;114.03;44.78;;;;;;;0.25;100.00;98239.84;2080178;28;22367;-80
2020/12/13 00:54:28;;;;;;;118.35;43.78;;;;;;;0.11;100.00;98224.78;2073307;28;20642;-80
2020/12/13 00:55:29;;;;;;;109.95;46.35;;;;;;;0.26;100.00;98243.28;2072215;28;20698;-79
2020/12/13 00:56:30;;;;;;;114.17;45.50;;;;;;;0.20;100.00;98236.41;2082291;28;20587;-80
2020/12/13 00:57:32;;;;;;;105.40;45.47;;;;;;;0.18;100.00;98246.38;2080163;28;20224;-80
2020/12/13 00:58:33;;;;;;;101.88;44.22;;;;;;;0.17;100.00;98247.38;2080316;28;20277;-80
2020/12/13 00:59:34;;;;;;;107.38;44.70;;;;;;;0.10;100.00;98247.59;2079990;28;20227;-80
2020/12/13 01:00:35;;;;;;;122.73;47.23;;;;;;;0.10;100.00;98257.31;2080388;28;20227;-80
2020/12/13 01:01:36;;;;;;;129.07;48.65;;;;;;;0.05;100.00;98244.94;2080324;28;20231;-80
2020/12/13 01:02:37;;;;;;;128.00;48.67;;;;;;;0.11;100.00;98249.19;2073448;28;20698;-80
2020/12/13 01:03:38;;;;;;;130.70;48.95;;;;;;;0.11;100.00;98248.41;2071983;28;20232;-80
2020/12/13 01:04:39;;;;;;;127.97;49.17;;;;;;;-0.06;100.00;98223.06;2072616;28;20259;-80
2020/12/13 01:05:40;;;;;;;134.02;49.15;;;;;;;0.03;100.00;98252.25;2086748;28;20234;-80
2020/12/13 01:06:41;;;;;;;123.23;46.90;;;;;;;-0.01;100.00;98246.69;2080166;28;20270;-80
2020/12/13 01:07:42;;;;;;;125.07;48.88;;;;;;;-0.09;100.00;98239.31;2081228;28;20227;-80
2020/12/13 01:08:44;;;;;;;135.55;48.67;;;;;;;-0.02;100.00;98246.94;2080514;28;20215;-80
2020/12/13 01:09:45;;;;;;;132.35;47.92;;;;;;;-0.17;100.00;98231.88;2072019;28;20216;-80
2020/12/13 01:10:46;;;;;;;139.60;47.73;;;;;;;-0.19;100.00;98223.44;2072580;28;20229;-80
2020/12/13 01:11:47;;;;;;;131.93;49.63;;;;;;;-0.12;100.00;98234.53;2080268;28;20226;-80
2020/12/13 01:12:49;;;;;;;137.10;48.37;;;;;;;0.01;100.00;98250.94;2080915;28;20215;-80
2020/12/13 01:13:50;;;;;;;127.40;48.70;;;;;;;-0.06;100.00;98245.88;2081019;28;20219;-80
2020/12/13 01:14:51;;;;;;;133.55;49.67;;;;;;;-0.09;100.00;98255.03;2080078;28;20228;-80
2020/12/13 01:15:53;;;;;;;133.32;49.50;;;;;;;-0.07;100.00;98247.69;2081571;28;20238;-80
2020/12/13 01:16:55;;;;;;;132.40;48.85;;;;;;;-0.06;100.00;98254.53;2071928;28;20228;-80
2020/12/13 01:17:55;;;;;;;135.55;49.53;;;;;;;-0.09;100.00;98252.41;2071687;28;20289;-80
2020/12/13 01:18:59;;;;;;;126.87;50.57;;;;;;;-0.13;100.00;98253.91;2080260;28;20285;-80
2020/12/13 01:20:00;;;;;;;130.95;50.15;;;;;;;-0.12;100.00;98257.34;2080856;28;20612;-80
2020/12/13 01:21:01;;;;;;;140.90;50.47;;;;;;;-0.09;100.00;98255.03;2080036;28;20230;-80
2020/12/13 01:22:02;;;;;;;122.43;48.72;;;;;;;-0.10;100.00;98253.41;2071853;28;20241;-80
2020/12/13 01:23:03;;;;;;;127.78;47.72;;;;;;;-0.13;100.00;98259.16;2080031;28;20697;-80
2020/12/13 01:24:04;;;;;;;131.07;47.93;;;;;;;-0.14;100.00;98262.03;2079946;28;20593;-79
2020/12/13 01:25:06;;;;;;;121.60;45.67;;;;;;;-0.17;100.00;98254.69;2071814;28;20314;-80
2020/12/13 01:26:10;;;;;;;135.80;52.03;;;;;;;-0.13;100.00;98253.13;2079627;28;20668;-80
2020/12/13 01:27:11;;;;;;;146.50;52.15;;;;;;;-0.20;100.00;98245.44;2079080;28;20235;-80
2020/12/13 01:28:13;;;;;;;143.73;50.30;;;;;;;-0.20;100.00;98248.06;2080021;28;20227;-79
2020/12/13 01:29:14;;;;;;;137.57;50.03;;;;;;;-0.20;100.00;98252.53;2080294;28;20223;-79
2020/12/13 01:30:15;;;;;;;155.67;50.37;;;;;;;-0.23;100.00;98253.03;2080764;28;20359;-80
2020/12/13 01:31:19;;;;;;;155.82;51.92;;;;;;;-0.14;100.00;98254.16;2080094;28;20227;-79
2020/12/13 01:32:20;;;;;;;139.60;51.05;;;;;;;-0.19;100.00;98252.28;2080198;28;20844;-79
2020/12/13 01:33:21;;;;;;;150.75;52.53;;;;;;;-0.24;100.00;98248.81;2080572;28;20227;-80
2020/12/13 01:34:22;;;;;;;154.20;50.20;;;;;;;-0.31;100.00;98244.56;2082338;28;20733;-80
2020/12/13 01:35:25;;;;;;;158.43;51.55;;;;;;;-0.31;100.00;98247.19;2079920;28;20702;-79
2020/12/13 01:36:26;;;;;;;155.45;54.10;;;;;;;-0.32;100.00;98247.44;2079942;28;20670;-79
2020/12/13 01:37:27;;;;;;;160.68;54.55;;;;;;;-0.33;100.00;98243.22;2080131;28;20285;-79
2020/12/13 01:38:28;;;;;;;165.13;54.83;;;;;;;-0.32;100.00;98244.81;2071634;28;20282;-79
2020/12/13 01:39:29;;;;;;;158.18;54.75;;;;;;;-0.28;100.00;98246.69;2072273;28;20235;-79
2020/12/13 01:40:30;;;;;;;158.73;54.10;;;;;;;-0.39;100.00;98247.59;2078785;28;20281;-79
2020/12/13 01:41:31;;;;;;;154.23;51.67;;;;;;;-0.31;100.00;98249.78;2088312;28;20222;-79
2020/12/13 01:42:37;;;;;;;154.67;52.83;;;;;;;-0.31;100.00;98256.88;2082637;28;20239;-79
2020/12/13 01:43:39;;;;;;;146.88;50.70;;;;;;;-0.31;100.00;98262.13;2081481;28;20223;-80
2020/12/13 01:44:40;;;;;;;153.95;51.70;;;;;;;-0.43;100.00;98243.13;2086484;28;20708;-79
2020/12/13 01:45:41;;;;;;;160.33;54.23;;;;;;;-0.40;100.00;98246.03;2080146;28;20658;-79
2020/12/13 01:46:43;;;;;;;185.50;54.05;;;;;;;-0.34;100.00;98249.50;2081262;28;20278;-79
2020/12/13 01:47:44;;;;;;;166.30;53.17;;;;;;;-0.34;100.00;98255.53;2080607;28;20224;-79
2020/12/13 01:48:45;;;;;;;144.48;52.97;;;;;;;-0.43;100.00;98232.63;2080745;28;20223;-80
2020/12/13 01:49:47;;;;;;;152.03;53.00;;;;;;;-0.39;100.00;98241.56;2080709;28;20219;-80
2020/12/13 01:50:55;;;;;;;155.93;52.60;;;;;;;-0.34;100.00;98246.88;2079256;28;20734;-79
2020/12/13 01:52:37;;;;;;;163.60;54.60;;;;;;;-0.33;100.00;98244.00;2081264;28;20342;-79
2020/12/13 01:53:26;;;;;;;158.55;52.60;;;;;;;-0.35;100.00;98251.34;2085665;28;20269;-79
2020/12/13 01:54:27;;;;;;;140.20;52.33;;;;;;;-0.35;100.00;98250.53;2088270;28;20232;-79
2020/12/13 01:55:28;;;;;;;147.68;53.22;;;;;;;-0.34;100.00;98244.25;2080843;28;20227;-79
2020/12/13 01:56:32;;;;;;;149.70;52.87;;;;;;;-0.32;100.00;98247.44;2079940;28;20219;-79
2020/12/13 01:57:34;;;;;;;156.40;53.22;;;;;;;-0.30;100.00;98254.00;2087473;28;20584;-79
2020/12/13 01:58:37;;;;;;;139.38;52.15;;;;;;;-0.30;100.00;98247.97;2080514;28;20219;-79
2020/12/13 01:59:40;;;;;;;141.15;49.35;;;;;;;-0.37;100.00;98242.91;2087755;28;20310;-79
2020/12/13 02:00:44;;;;;;;146.25;50.00;;;;;;;-0.26;100.00;98253.50;2088652;28;20223;-80
2020/12/13 02:01:47;;;;;;;141.65;50.60;;;;;;;-0.26;100.00;98259.56;2087896;28;20692;-79
2020/12/13 02:02:53;;;;;;;141.88;53.42;;;;;;;-0.29;100.00;98254.78;2080356;28;20278;-79
2020/12/13 02:03:58;;;;;;;137.68;53.22;;;;;;;-0.30;100.00;98258.44;2077930;28;20227;-79
2020/12/13 02:05:00;;;;;;;141.82;50.40;;;;;;;-0.38;100.00;98246.56;2079730;28;20736;-79
2020/12/13 02:06:02;;;;;;;140.68;51.85;;;;;;;-0.32;100.00;98250.03;2079766;28;20223;-79
2020/12/13 02:07:04;;;;;;;144.77;50.80;;;;;;;-0.39;100.00;98246.81;2080099;28;20216;-79
2020/12/13 02:08:05;;;;;;;133.38;50.33;;;;;;;-0.31;100.00;98251.63;2079506;28;20223;-80
2020/12/13 02:09:06;;;;;;;146.50;51.28;;;;;;;-0.37;100.00;98252.59;2071373;28;20237;-79
2020/12/13 02:10:09;;;;;;;136.93;50.63;;;;;;;-0.36;100.00;98243.69;2087571;28;20248;-79
2020/12/13 02:11:11;;;;;;;130.68;48.40;;;;;;;-0.40;100.00;98237.38;2088672;28;20219;-80
2020/12/13 02:12:12;;;;;;;137.55;50.42;;;;;;;-0.35;100.00;98245.28;2087710;28;20413;-79
2020/12/13 02:13:13;;;;;;;139.23;50.50;;;;;;;-0.32;100.00;98250.84;2079882;28;20219;-79
2020/12/13 02:14:14;;;;;;;140.70;48.22;;;;;;;-0.28;100.00;98254.53;2088042;28;20234;-80
2020/12/13 02:15:16;;;;;;;148.03;49.83;;;;;;;-0.28;100.00;98259.00;2081611;28;20243;-79
2020/12/13 02:16:17;;;;;;;135.00;49.92;;;;;;;-0.31;100.00;98256.88;2079453;28;20289;-79
2020/12/13 02:17:20;;;;;;;147.30;51.33;;;;;;;-0.36;100.00;98248.94;2079807;28;20219;-79
2020/12/13 02:18:21;;;;;;;142.90;50.47;;;;;;;-0.31;100.00;98256.88;2080348;28;20736;-80
2020/12/13 02:19:22;;;;;;;134.37;51.80;;;;;;;-0.31;100.00;98256.88;2088308;28;20678;-80
2020/12/13 02:20:23;;;;;;;128.35;47.65;;;;;;;-0.20;100.00;98255.94;2087474;28;20613;-80
2020/12/13 02:21:24;;;;;;;137.93;51.43;;;;;;;-0.22;100.00;98254.59;2079712;28;20235;-79
2020/12/13 02:22:26;;;;;;;142.68;50.90;;;;;;;-0.25;100.00;98255.09;2079540;28;20372;-79
2020/12/13 02:23:29;;;;;;;136.73;49.30;;;;;;;-0.27;100.00;98263.19;2079382;28;20783;-79
2020/12/13 02:24:30;;;;;;;124.90;47.85;;;;;;;-0.33;100.00;98257.13;2087787;28;20251;-79
2020/12/13 02:25:31;;;;;;;122.87;48.47;;;;;;;-0.32;100.00;98266.56;2087762;28;20245;-79
2020/12/13 02:26:31;;;;;;;130.68;50.70;;;;;;;-0.33;100.00;98258.94;2079779;28;20223;-80
2020/12/13 02:27:33;;;;;;;127.53;50.17;;;;;;;-0.29;100.00;98265.28;2087862;28;20219;-79
2020/12/13 02:28:35;;;;;;;125.60;48.60;;;;;;;-0.41;100.00;98257.56;2088742;28;20226;-79
2020/12/13 02:29:37;;;;;;;129.75;48.03;;;;;;;-0.32;100.00;98261.31;2088570;28;20234;-79
2020/12/13 02:30:39;;;;;;;137.18;49.13;;;;;;;-0.34;100.00;98254.75;2081066;28;20599;-79
2020/12/13 02:31:40;;;;;;;123.47;47.65;;;;;;;-0.29;100.00;98265.28;2071411;28;20278;-79
2020/12/13 02:32:41;;;;;;;133.52;46.45;;;;;;;-0.43;100.00;98240.50;2079552;28;20230;-80
2020/12/13 02:33:42;;;;;;;135.03;49.87;;;;;;;-0.29;100.00;98271.31;2082160;28;20231;-80
2020/12/13 02:34:43;;;;;;;136.85;51.03;;;;;;;-0.38;100.00;98251.81;2079505;28;20266;-79
2020/12/13 02:35:44;;;;;;;139.60;49.33;;;;;;;-0.32;100.00;98265.78;2079327;28;20247;-80
2020/12/13 02:36:44;;;;;;;132.75;46.58;;;;;;;-0.31;100.00;98256.88;2080293;28;20219;-79
2020/12/13 02:37:46;;;;;;;140.93;49.50;;;;;;;-0.25;100.00;98271.63;2080245;28;20306;-80
2020/12/13 02:38:47;;;;;;;131.95;49.45;;;;;;;-0.25;100.00;98269.00;2080310;28;20251;-79
2020/12/13 02:39:49;;;;;;;132.33;46.93;;;;;;;-0.41;100.00;98244.44;2080281;28;20219;-79
2020/12/13 02:40:50;;;;;;;133.05;45.63;;;;;;;-0.30;100.00;98261.84;2079545;28;20231;-79
2020/12/13 02:42:02;;;;;;;111.73;46.70;;;;;;;-0.22;100.00;98262.47;2079490;28;20224;-80
2020/12/13 02:43:02;;;;;;;120.35;47.55;;;;;;;-0.23;100.00;98268.75;2079885;28;20223;-79
2020/12/13 02:44:03;;;;;;;127.67;47.97;;;;;;;-0.26;100.00;98256.13;2079501;28;20219;-79
2020/12/13 02:45:04;;;;;;;142.43;49.10;;;;;;;-0.19;100.00;98273.25;2071331;28;20226;-80
2020/12/13 02:46:05;;;;;;;120.40;47.20;;;;;;;-0.20;100.00;98257.78;2079230;28;20230;-80
2020/12/13 02:47:06;;;;;;;122.65;47.03;;;;;;;-0.12;100.00;98266.00;2079551;28;20219;-79
2020/12/13 02:48:07;;;;;;;123.50;47.67;;;;;;;-0.08;100.00;98272.34;2078875;28;20227;-80
2020/12/13 02:49:08;;;;;;;118.45;47.28;;;;;;;-0.17;100.00;98265.16;2087879;28;20260;-79
2020/12/13 02:50:09;;;;;;;126.60;48.03;;;;;;;-0.22;100.00;98270.34;2081085;28;20321;-80
2020/12/13 02:51:10;;;;;;;128.32;48.13;;;;;;;-0.33;100.00;98253.72;2071270;28;20220;-79
2020/12/13 02:52:11;;;;;;;109.40;42.40;;;;;;;-0.21;100.00;98275.31;2071419;28;20247;-80
2020/12/13 02:53:13;;;;;;;110.07;43.97;;;;;;;-0.26;100.00;98269.22;2087784;28;20230;-79
2020/12/13 02:54:14;;;;;;;120.47;47.35;;;;;;;-0.19;100.00;98273.25;2103274;28;20213;-80
2020/12/13 02:55:15;;;;;;;124.35;46.05;;;;;;;-0.19;100.00;98273.25;2080389;28;20774;-78
2020/12/13 02:56:16;;;;;;;115.13;48.07;;;;;;;-0.29;100.00;98266.06;2079519;28;20657;-78
2020/12/13 02:57:17;;;;;;;125.70;48.38;;;;;;;-0.24;100.00;98267.16;2080345;28;20227;-79
2020/12/13 02:58:18;;;;;;;122.33;47.90;;;;;;;-0.26;100.00;98259.56;2079850;28;20813;-79
2020/12/13 02:59:19;;;;;;;119.50;46.80;;;;;;;-0.25;100.00;98269.00;2079528;28;20222;-79
2020/12/13 03:00:20;;;;;;;119.63;47.17;;;;;;;-0.29;100.00;98273.94;2080244;28;20223;-78
2020/12/13 03:01:21;;;;;;;105.70;45.40;;;;;;;-0.32;100.00;98269.19;2080235;28;20227;-79
2020/12/13 03:02:22;;;;;;;109.33;44.50;;;;;;;-0.37;100.00;98260.47;2088222;28;20226;-79
2020/12/13 03:03:23;;;;;;;123.05;47.10;;;;;;;-0.25;100.00;98274.25;2087379;28;20226;-79
2020/12/13 03:04:24;;;;;;;113.23;45.37;;;;;;;-0.24;100.00;98278.44;2079559;28;20238;-79
2020/12/13 03:05:25;;;;;;;110.80;45.78;;;;;;;-0.23;100.00;98272.16;2079749;28;20606;-78
2020/12/13 03:06:27;;;;;;;112.87;47.20;;;;;;;-0.24;100.00;98269.78;2079365;28;20246;-79
2020/12/13 03:07:28;;;;;;;109.55;44.35;;;;;;;-0.22;100.00;98276.38;2087781;28;20732;-78
2020/12/13 03:08:30;;;;;;;119.50;45.17;;;;;;;-0.23;100.00;98279.25;2087628;28;20658;-78
2020/12/13 03:09:31;;;;;;;118.75;45.88;;;;;;;-0.20;100.00;98278.75;2087600;28;20703;-80
2020/12/13 03:10:32;;;;;;;105.80;42.53;;;;;;;-0.20;100.00;98284.78;2087760;28;20668;-79
2020/12/13 03:11:33;;;;;;;119.80;44.47;;;;;;;-0.23;100.00;98280.03;2087489;28;20680;-79
2020/12/13 03:12:34;;;;;;;105.85;42.88;;;;;;;-0.24;100.00;98286.31;2079325;28;20227;-78
2020/12/13 03:13:35;;;;;;;97.80;42.28;;;;;;;-0.24;100.00;98278.44;2087781;28;20700;-78
2020/12/13 03:14:36;;;;;;;111.17;43.57;;;;;;;-0.26;100.00;98274.47;2088519;28;20638;-78
2020/12/13 03:15:37;;;;;;;113.72;44.10;;;;;;;-0.23;100.00;98279.25;2086970;28;20782;-79
2020/12/13 03:16:38;;;;;;;107.60;43.40;;;;;;;-0.35;100.00;98266.25;2087573;28;20683;-79
2020/12/13 03:17:40;;;;;;;112.20;44.08;;;;;;;-0.22;100.00;98288.69;2088126;28;20301;-79
2020/12/13 03:18:42;;;;;;;110.30;45.15;;;;;;;-0.29;100.00;98278.38;2088792;28;20235;-78
2020/12/13 03:19:42;;;;;;;114.50;44.55;;;;;;;-0.31;100.00;98277.84;2088163;28;20591;-79
2020/12/13 03:20:44;;;;;;;100.53;42.27;;;;;;;-0.26;100.00;98277.91;2088913;28;20219;-79
2020/12/13 03:21:44;;;;;;;116.88;46.03;;;;;;;-0.18;100.00;98282.69;2088363;28;20223;-79
2020/12/13 03:22:45;;;;;;;113.07;44.10;;;;;;;-0.18;100.00;98287.94;2088475;28;20310;-78
2020/12/13 03:23:47;;;;;;;115.30;45.55;;;;;;;-0.17;100.00;98291.38;2088636;28;20669;-79
2020/12/13 03:24:48;;;;;;;114.65;45.55;;;;;;;-0.18;100.00;98284.53;2088438;28;20223;-78
2020/12/13 03:25:49;;;;;;;123.45;44.50;;;;;;;-0.15;100.00;98297.94;2087555;28;20227;-78
2020/12/13 03:26:50;;;;;;;102.03;43.40;;;;;;;-0.24;100.00;98283.69;2087678;28;20324;-79
2020/12/13 03:27:51;;;;;;;97.28;42.33;;;;;;;-0.21;100.00;98288.44;2088326;28;20262;-78
2020/12/13 03:28:52;;;;;;;90.00;40.23;;;;;;;-0.15;100.00;98291.91;2085296;28;20227;-79
2020/12/13 03:29:53;;;;;;;97.40;42.28;;;;;;;-0.27;100.00;98284.16;2087643;28;20226;-79
2020/12/13 03:30:54;;;;;;;95.13;41.20;;;;;;;-0.19;100.00;98291.59;2081062;28;20231;-79
2020/12/13 03:31:56;;;;;;;102.45;42.58;;;;;;;-0.16;100.00;98299.00;2071272;28;20720;-78
2020/12/13 03:32:56;;;;;;;104.55;43.97;;;;;;;-0.21;100.00;98293.66;2080584;28;20227;-78
2020/12/13 03:33:58;;;;;;;88.00;38.87;;;;;;;-0.14;100.00;98306.59;2081469;28;20283;-78
2020/12/13 03:34:59;;;;;;;97.75;40.95;;;;;;;-0.20;100.00;98292.63;2080903;28;20223;-78
2020/12/13 03:36:00;;;;;;;94.38;39.78;;;;;;;-0.13;100.00;98305.56;2079876;28;20219;-78
2020/12/13 03:37:00;;;;;;;98.38;40.70;;;;;;;-0.12;100.00;98305.31;2080836;28;20219;-78
2020/12/13 03:38:02;;;;;;;90.63;40.97;;;;;;;-0.11;100.00;98306.09;2075387;28;20718;-78
2020/12/13 03:39:03;;;;;;;93.95;40.80;;;;;;;-0.14;100.00;98309.22;2080873;28;20302;-78
2020/12/13 03:40:06;;;;;;;79.22;38.58;;;;;;;-0.11;100.00;98308.72;2080953;28;20250;-78
2020/12/13 03:41:07;;;;;;;85.35;37.50;;;;;;;-0.11;100.00;98312.13;2088668;28;20226;-78
2020/12/13 03:42:08;;;;;;;87.80;39.37;;;;;;;-0.15;100.00;98303.19;2089057;28;20237;-78
2020/12/13 03:43:09;;;;;;;97.38;41.40;;;;;;;-0.14;100.00;98310.00;2080694;28;20231;-78
2020/12/13 03:44:13;;;;;;;99.80;40.85;;;;;;;-0.13;100.00;98316.06;2089111;28;20306;-78
2020/12/13 03:45:14;;;;;;;87.05;38.45;;;;;;;-0.10;100.00;98320.78;2089804;28;20677;-78
2020/12/13 03:46:15;;;;;;;80.17;37.83;;;;;;;-0.14;100.00;98310.00;2089087;28;20660;-78
2020/12/13 03:47:15;;;;;;;84.75;36.40;;;;;;;-0.09;100.00;98317.94;2089335;28;20226;-78
2020/12/13 03:48:17;;;;;;;77.77;35.93;;;;;;;-0.09;100.00;98312.72;2089769;28;20222;-78
2020/12/13 03:49:18;;;;;;;84.20;39.60;;;;;;;-0.17;100.00;98312.34;2088967;28;20274;-78
2020/12/13 03:50:19;;;;;;;75.00;35.28;;;;;;;-0.16;100.00;98313.94;2089282;28;20306;-78
2020/12/13 03:51:20;;;;;;;75.60;35.45;;;;;;;-0.10;100.00;98324.19;2089015;28;20222;-78
2020/12/13 03:52:21;;;;;;;81.20;37.60;;;;;;;-0.12;100.00;98323.66;2089197;28;20688;-78
2020/12/13 03:53:23;;;;;;;82.28;37.80;;;;;;;-0.19;100.00;98325.66;2083194;28;20235;-78
2020/12/13 03:54:25;;;;;;;84.70;37.80;;;;;;;-0.15;100.00;98328.63;2081414;28;20246;-78
2020/12/13 03:55:25;;;;;;;88.40;38.03;;;;;;;-0.16;100.00;98321.78;2080755;28;20236;-78
2020/12/13 03:56:27;;;;;;;75.63;34.43;;;;;;;-0.19;100.00;98322.25;2081266;28;20227;-78
2020/12/13 03:57:27;;;;;;;71.85;35.58;;;;;;;-0.15;100.00;98320.75;2087747;28;20223;-78
2020/12/13 03:58:29;;;;;;;76.37;36.07;;;;;;;-0.15;100.00;98324.16;2088921;28;20222;-78
2020/12/13 03:59:29;;;;;;;88.90;37.30;;;;;;;-0.18;100.00;98313.34;2081705;28;20708;-78
2020/12/13 04:00:31;;;;;;;77.63;35.57;;;;;;;-0.13;100.00;98327.31;2080879;28;20638;-78
2020/12/13 04:01:31;;;;;;;72.28;34.25;;;;;;;-0.12;100.00;98326.28;2080377;28;20306;-78
2020/12/13 04:02:33;;;;;;;82.67;36.97;;;;;;;-0.13;100.00;98324.69;2080838;28;20227;-78
2020/12/13 04:03:33;;;;;;;71.55;35.65;;;;;;;-0.16;100.00;98306.84;2080628;28;20598;-78
2020/12/13 04:04:35;;;;;;;76.27;34.47;;;;;;;-0.11;100.00;98327.88;2080732;28;20266;-78
2020/12/13 04:05:35;;;;;;;74.35;34.72;;;;;;;-0.03;100.00;98316.16;2081413;28;20230;-78
2020/12/13 04:06:36;;;;;;;74.53;34.27;;;;;;;-0.04;100.00;98323.22;2080721;28;20362;-78
2020/12/13 04:07:37;;;;;;;82.00;36.83;;;;;;;-0.12;100.00;98321.03;2080067;28;20253;-78
2020/12/13 04:08:38;;;;;;;82.30;37.77;;;;;;;-0.08;100.00;98324.78;2088963;28;20301;-78
2020/12/13 04:09:40;;;;;;;76.70;36.05;;;;;;;-0.10;100.00;98332.06;2097152;28;20230;-78
2020/12/13 04:10:41;;;;;;;71.85;34.22;;;;;;;-0.11;100.00;98327.06;2097144;28;20286;-78
2020/12/13 04:11:42;;;;;;;68.53;34.65;;;;;;;-0.15;100.00;98323.38;2089615;28;20227;-78
2020/12/13 04:12:43;;;;;;;74.40;34.77;;;;;;;-0.11;100.00;98330.50;2088905;28;20272;-78
2020/12/13 04:13:44;;;;;;;72.72;36.17;;;;;;;-0.08;100.00;98340.50;2088887;28;20273;-78
2020/12/13 04:14:45;;;;;;;79.67;35.53;;;;;;;-0.09;100.00;98331.06;2088834;28;20293;-78
2020/12/13 04:15:46;;;;;;;74.00;35.95;;;;;;;-0.12;100.00;98331.53;2088961;28;20269;-78
2020/12/13 04:16:47;;;;;;;82.30;36.87;;;;;;;-0.17;100.00;98325.44;2088520;28;20226;-78
2020/12/13 04:17:48;;;;;;;73.63;33.53;;;;;;;-0.10;100.00;98334.69;2075023;28;20254;-78
2020/12/13 04:18:49;;;;;;;67.03;35.60;;;;;;;-0.17;100.00;98320.22;2080647;28;20227;-78
2020/12/13 04:19:50;;;;;;;69.47;32.17;;;;;;;-0.15;100.00;98320.75;2082692;28;20219;-78
2020/12/13 04:20:51;;;;;;;67.53;32.90;;;;;;;-0.14;100.00;98322.34;2081041;28;20224;-78
2020/12/13 04:21:52;;;;;;;69.28;34.20;;;;;;;-0.21;100.00;98313.84;2073917;28;20220;-78
2020/12/13 04:22:53;;;;;;;65.23;32.83;;;;;;;-0.06;100.00;98338.44;2078729;28;20677;-78
2020/12/13 04:23:54;;;;;;;73.22;33.83;;;;;;;-0.06;100.00;98333.19;2080876;28;20223;-78
2020/12/13 04:24:56;;;;;;;69.20;33.10;;;;;;;-0.08;100.00;98330.03;2082134;28;20239;-77
2020/12/13 04:25:57;;;;;;;65.82;32.42;;;;;;;-0.21;100.00;98319.88;2080608;28;20267;-77
2020/12/13 04:26:58;;;;;;;63.93;34.37;;;;;;;-0.09;100.00;98332.84;2079350;28;20231;-77
2020/12/13 04:27:59;;;;;;;70.78;36.60;;;;;;;-0.15;100.00;98336.47;2088703;28;20453;-77
2020/12/13 04:29:00;;;;;;;74.97;35.10;;;;;;;-0.11;100.00;98340.97;2081477;28;20307;-77
2020/12/13 04:30:01;;;;;;;68.35;36.72;;;;;;;-0.14;100.00;98324.94;2080357;28;20224;-78
2020/12/13 04:31:02;;;;;;;65.77;34.53;;;;;;;-0.05;100.00;98336.59;2080409;28;20298;-77
2020/12/13 04:32:03;;;;;;;73.88;35.97;;;;;;;-0.19;100.00;98317.81;2072383;28;20694;-77
2020/12/13 04:33:06;;;;;;;66.10;36.83;;;;;;;-0.05;100.00;98339.22;2080243;28;20554;-77
2020/12/13 04:34:07;;;;;;;79.93;39.40;;;;;;;-0.08;100.00;98345.75;2088425;28;20250;-78
2020/12/13 04:35:08;;;;;;;68.20;37.90;;;;;;;-0.07;100.00;98338.69;2080419;28;20283;-78
2020/12/13 04:36:09;;;;;;;71.45;37.17;;;;;;;-0.10;100.00;98337.31;2080421;28;20220;-78
2020/12/13 04:37:10;;;;;;;71.68;34.80;;;;;;;-0.07;100.00;98346.53;2088841;28;20215;-77
2020/12/13 04:38:11;;;;;;;63.90;36.53;;;;;;;-0.18;100.00;98323.84;2088239;28;20787;-78